Terminal Aerodrome Forecast
Issued by NWS

Home | Current Version | Previous Version | Graphics & Text | Print | Product List | Glossary On
Versions: 1 2 3 4 5 6 7 8 9 10 11 12 13 14 15 16 17 18 19 20 21 22 23 24 25 26 27
196
FTUS43 KLOT 201125
TAFDPA
TAF
KDPA 201125Z 2012/2112 VRB02KT 1SM BR FEW004 SCT070
      TEMPO 2012/2014 1/4SM FG VV003
     FM201500 17007KT 6SM BR FEW015 SCT040
     FM201800 18014G21KT P6SM SCT060 SCT250
     FM210100 20006KT P6SM BKN200 PROB30 2105/2108 -SHRA BKN050=

USA.gov is the U.S. government's official web portal to all federal, state and local government web resources and services.